Time;durP1;ratioP1;P1;durP2;ratioP2;P2;SDS_P1;SDS_P2;PMS_P1;PMS_P2;Temp;Humidity;BMP_temperature;BMP_pressure;BME280_temperature;BME280_humidity;BME280_pressure;Samples;Min_cycle;Max_cycle;Signal;HPM_P1;HPM_P2
2021/06/01 00:00:09;;;;;;;;;;;19.70;58.00;;;;;;5034153;28;1063;-74
2021/06/01 00:02:34;;;;;;;;;;;19.70;58.00;;;;;;5033178;28;1143;-74
2021/06/01 00:04:59;;;;;;;;;;;19.70;58.00;;;;;;5032844;28;1906;-75
2021/06/01 00:07:25;;;;;;;;;;;19.70;58.10;;;;;;5043131;28;1388;-74
2021/06/01 00:09:50;;;;;;;;;;;19.70;58.10;;;;;;5040755;28;1219;-74
2021/06/01 00:12:16;;;;;;;;;;;19.70;58.10;;;;;;5034449;28;985;-75
2021/06/01 00:14:41;;;;;;;;;;;19.70;58.10;;;;;;5030530;28;1064;-74
2021/06/01 00:17:06;;;;;;;;;;;19.70;58.20;;;;;;5032356;28;1365;-74
2021/06/01 00:19:32;;;;;;;;;;;19.70;58.80;;;;;;5034554;28;1076;-75
2021/06/01 00:21:57;;;;;;;;;;;19.70;58.20;;;;;;5034110;28;1044;-74
2021/06/01 00:24:23;;;;;;;;;;;19.70;58.20;;;;;;5034006;28;1906;-75
2021/06/01 00:26:48;;;;;;;;;;;19.70;58.30;;;;;;5034071;28;1267;-75
2021/06/01 00:29:14;;;;;;;;;;;19.70;58.30;;;;;;5033782;28;1199;-75
2021/06/01 00:31:39;;;;;;;;;;;19.70;58.30;;;;;;5034264;28;1126;-74
2021/06/01 00:34:05;;;;;;;;;;;19.70;58.30;;;;;;5033370;28;1130;-75
2021/06/01 00:36:30;;;;;;;;;;;19.70;58.30;;;;;;5034184;28;1083;-75
2021/06/01 00:38:56;;;;;;;;;;;19.70;58.40;;;;;;5032714;28;1211;-75
2021/06/01 00:41:21;;;;;;;;;;;19.70;58.40;;;;;;5016219;28;1523;-74
2021/06/01 00:43:46;;;;;;;;;;;19.70;58.40;;;;;;5033436;28;1186;-74
2021/06/01 00:46:12;;;;;;;;;;;19.70;58.40;;;;;;5032351;28;1957;-75
2021/06/01 00:48:37;;;;;;;;;;;19.70;58.40;;;;;;5034294;28;1346;-75
2021/06/01 00:51:03;;;;;;;;;;;19.70;58.50;;;;;;5016005;28;1141;-75
2021/06/01 00:53:28;;;;;;;;;;;19.70;58.50;;;;;;5031500;28;1290;-74
2021/06/01 00:55:54;;;;;;;;;;;19.70;58.50;;;;;;5033854;28;1178;-74
2021/06/01 00:58:19;;;;;;;;;;;19.70;58.50;;;;;;5033417;28;1199;-74
2021/06/01 01:01:11;;;;;;;;;;;19.70;58.50;;;;;;5033656;28;1075;-74
2021/06/01 01:03:30;;;;;;;;;;;19.60;58.50;;;;;;5030340;28;1374;-74
2021/06/01 01:06:03;;;;;;;;;;;19.70;58.60;;;;;;5032479;28;1964;-75
2021/06/01 01:10:54;;;;;;;;;;;19.70;58.60;;;;;;5033695;28;1091;-75
2021/06/01 01:13:19;;;;;;;;;;;19.70;58.60;;;;;;5031391;28;1060;-74
2021/06/01 01:15:45;;;;;;;;;;;19.70;58.60;;;;;;5018374;28;1276;-74
2021/06/01 01:18:13;;;;;;;;;;;19.60;58.60;;;;;;5031913;28;1286;-74
2021/06/01 01:20:57;;;;;;;;;;;19.60;58.60;;;;;;5032522;28;1119;-74
2021/06/01 01:23:23;;;;;;;;;;;19.70;59.20;;;;;;5032473;28;1149;-75
2021/06/01 01:25:48;;;;;;;;;;;19.60;58.60;;;;;;5031579;28;1910;-75
2021/06/01 01:28:32;;;;;;;;;;;19.60;58.70;;;;;;5032851;28;1580;-74
2021/06/01 01:31:01;;;;;;;;;;;19.60;58.70;;;;;;5033033;28;1126;-75
2021/06/01 01:33:27;;;;;;;;;;;19.60;58.70;;;;;;5032159;28;1127;-74
2021/06/01 01:35:57;;;;;;;;;;;19.60;58.80;;;;;;5031728;28;1064;-74
2021/06/01 01:38:22;;;;;;;;;;;19.60;58.70;;;;;;5031070;28;1384;-75
2021/06/01 01:40:48;;;;;;;;;;;19.60;58.80;;;;;;5032044;28;1056;-75
2021/06/01 01:43:18;;;;;;;;;;;19.60;58.80;;;;;;5030838;28;1119;-74
2021/06/01 01:45:46;;;;;;;;;;;19.60;58.80;;;;;;5031962;28;1914;-75
2021/06/01 01:51:21;;;;;;;;;;;19.60;58.80;;;;;;5032946;28;1111;-75
2021/06/01 01:53:49;;;;;;;;;;;19.60;58.80;;;;;;5030333;28;1181;-75
2021/06/01 01:56:17;;;;;;;;;;;19.60;58.90;;;;;;5031769;28;1115;-74
2021/06/01 01:58:42;;;;;;;;;;;19.60;58.90;;;;;;5031135;28;1215;-75
2021/06/01 02:01:08;;;;;;;;;;;19.60;58.90;;;;;;5031709;28;1405;-75
2021/06/01 02:03:34;;;;;;;;;;;19.60;58.90;;;;;;5032027;28;1146;-75
2021/06/01 02:06:00;;;;;;;;;;;19.60;58.90;;;;;;5031239;28;1953;-75
2021/06/01 02:08:25;;;;;;;;;;;19.60;58.90;;;;;;5030814;28;1219;-74
2021/06/01 02:10:51;;;;;;;;;;;19.60;59.00;;;;;;5031273;28;1107;-74
2021/06/01 02:13:16;;;;;;;;;;;19.60;58.90;;;;;;5030412;28;1246;-74
2021/06/01 02:15:42;;;;;;;;;;;19.60;59.00;;;;;;5032196;28;1182;-75
2021/06/01 02:18:07;;;;;;;;;;;19.60;59.00;;;;;;5031470;28;1222;-74
2021/06/01 02:20:33;;;;;;;;;;;19.60;59.00;;;;;;5031601;28;1055;-75
2021/06/01 02:25:44;;;;;;;;;;;19.60;59.00;;;;;;5028620;28;1913;-76
2021/06/01 02:28:10;;;;;;;;;;;19.60;59.00;;;;;;5030201;28;1250;-75
2021/06/01 02:30:41;;;;;;;;;;;19.60;59.00;;;;;;5031929;28;1040;-75
2021/06/01 02:33:06;;;;;;;;;;;19.60;59.10;;;;;;5029657;28;1068;-75
2021/06/01 02:35:38;;;;;;;;;;;19.60;59.10;;;;;;5031684;28;1040;-74
2021/06/01 02:38:05;;;;;;;;;;;19.60;59.10;;;;;;5031447;28;1256;-75
2021/06/01 02:40:30;;;;;;;;;;;19.60;59.10;;;;;;5030519;28;1100;-74
2021/06/01 02:42:56;;;;;;;;;;;19.60;59.10;;;;;;5030339;28;1081;-75
2021/06/01 02:45:22;;;;;;;;;;;19.60;59.10;;;;;;5031274;28;1914;-74
2021/06/01 02:47:48;;;;;;;;;;;19.60;59.10;;;;;;5030117;28;1449;-75
2021/06/01 02:50:14;;;;;;;;;;;19.60;59.10;;;;;;5030037;28;1262;-74
2021/06/01 02:52:40;;;;;;;;;;;19.60;59.20;;;;;;5030713;28;1147;-75
2021/06/01 02:55:05;;;;;;;;;;;19.50;59.30;;;;;;5029241;28;1115;-75
2021/06/01 02:57:31;;;;;;;;;;;19.60;59.20;;;;;;5029983;28;1269;-74
2021/06/01 02:59:56;;;;;;;;;;;19.60;59.20;;;;;;5030508;28;1115;-74
2021/06/01 03:02:21;;;;;;;;;;;19.60;59.20;;;;;;5031298;28;1076;-74
2021/06/01 03:04:53;;;;;;;;;;;19.60;59.20;;;;;;5029787;28;1902;-74
2021/06/01 03:07:19;;;;;;;;;;;19.60;59.20;;;;;;5030888;28;1281;-74
2021/06/01 03:09:44;;;;;;;;;;;19.60;59.20;;;;;;5029715;28;1170;-74
2021/06/01 03:12:20;;;;;;;;;;;19.60;59.20;;;;;;5032377;28;1127;-74
2021/06/01 03:14:45;;;;;;;;;;;19.60;59.80;;;;;;5022619;28;1075;-75
2021/06/01 03:17:11;;;;;;;;;;;19.60;59.20;;;;;;5035525;28;1297;-75
2021/06/01 03:19:36;;;;;;;;;;;19.60;59.40;;;;;;5038892;28;1223;-74
2021/06/01 03:22:01;;;;;;;;;;;19.60;59.50;;;;;;5038972;28;1357;-74
2021/06/01 03:24:27;;;;;;;;;;;19.70;59.50;;;;;;5039095;28;1958;-74
2021/06/01 03:26:52;;;;;;;;;;;19.70;59.40;;;;;;5039480;28;1290;-74
2021/06/01 03:29:18;;;;;;;;;;;19.70;59.50;;;;;;5039779;28;1255;-74
2021/06/01 03:31:43;;;;;;;;;;;19.70;59.50;;;;;;5038734;28;1290;-75
2021/06/01 03:34:09;;;;;;;;;;;19.70;59.50;;;;;;5037315;28;1219;-74
2021/06/01 03:36:34;;;;;;;;;;;19.70;59.60;;;;;;5029950;28;1295;-73
2021/06/01 03:39:03;;;;;;;;;;;19.80;59.70;;;;;;5029211;28;1492;-74
2021/06/01 03:41:28;;;;;;;;;;;19.80;59.80;;;;;;5030860;28;1391;-75
2021/06/01 03:43:54;;;;;;;;;;;19.80;59.90;;;;;;5034984;28;1201;-75
2021/06/01 03:46:19;;;;;;;;;;;19.80;59.90;;;;;;5035000;28;1899;-75
2021/06/01 03:48:45;;;;;;;;;;;19.80;59.90;;;;;;5034654;28;1209;-74
2021/06/01 03:51:10;;;;;;;;;;;19.80;59.90;;;;;;5034720;28;1127;-75
2021/06/01 03:53:36;;;;;;;;;;;19.80;60.00;;;;;;5033822;28;1130;-74
2021/06/01 03:56:01;;;;;;;;;;;19.90;60.00;;;;;;5035217;28;1099;-75
2021/06/01 03:58:26;;;;;;;;;;;19.90;60.00;;;;;;5034962;28;1313;-74
2021/06/01 04:00:52;;;;;;;;;;;19.90;60.00;;;;;;5034438;28;1075;-75
2021/06/01 04:03:17;;;;;;;;;;;19.90;60.00;;;;;;5032973;28;1116;-75
2021/06/01 04:05:43;;;;;;;;;;;19.90;60.00;;;;;;5032602;28;1901;-74
2021/06/01 04:08:08;;;;;;;;;;;19.90;60.10;;;;;;5034287;28;1287;-75
2021/06/01 04:10:34;;;;;;;;;;;20.00;60.20;;;;;;5034392;28;1134;-74
2021/06/01 04:12:59;;;;;;;;;;;20.00;60.30;;;;;;5033073;28;1183;-75
2021/06/01 04:15:25;;;;;;;;;;;20.00;60.30;;;;;;5033601;28;1165;-74
2021/06/01 04:17:50;;;;;;;;;;;20.00;60.30;;;;;;5032880;28;1279;-75
2021/06/01 04:20:16;;;;;;;;;;;20.00;60.30;;;;;;5033905;28;1099;-74
2021/06/01 04:22:41;;;;;;;;;;;20.00;60.40;;;;;;5034467;28;1139;-74
2021/06/01 04:25:07;;;;;;;;;;;20.00;60.30;;;;;;5033463;28;1959;-74
2021/06/01 04:27:33;;;;;;;;;;;20.00;60.40;;;;;;5033628;28;1263;-74
2021/06/01 04:29:58;;;;;;;;;;;20.00;60.40;;;;;;5034032;28;956;-74
2021/06/01 04:32:23;;;;;;;;;;;20.00;60.40;;;;;;5033892;28;1186;-75
2021/06/01 04:34:49;;;;;;;;;;;20.00;60.40;;;;;;5033590;28;1083;-74
2021/06/01 04:37:14;;;;;;;;;;;20.00;60.40;;;;;;5033458;28;1602;-75
2021/06/01 04:39:40;;;;;;;;;;;20.00;60.40;;;;;;5034428;28;888;-74
2021/06/01 04:42:05;;;;;;;;;;;20.00;60.50;;;;;;5033854;28;1170;-74
2021/06/01 04:44:31;;;;;;;;;;;20.00;60.50;;;;;;5031726;28;1960;-74
2021/06/01 04:46:59;;;;;;;;;;;20.00;60.50;;;;;;5033731;28;1349;-74
2021/06/01 04:49:24;;;;;;;;;;;20.00;60.50;;;;;;5032697;28;1173;-75
2021/06/01 04:51:50;;;;;;;;;;;20.00;60.50;;;;;;5032014;28;1084;-74
2021/06/01 04:54:15;;;;;;;;;;;20.10;60.70;;;;;;5031631;28;1123;-75
2021/06/01 04:56:40;;;;;;;;;;;20.10;60.70;;;;;;5033746;28;1099;-75
2021/06/01 04:59:06;;;;;;;;;;;20.10;60.70;;;;;;5033520;28;1209;-75
2021/06/01 05:01:31;;;;;;;;;;;20.10;60.70;;;;;;5015794;28;1100;-75
2021/06/01 05:03:57;;;;;;;;;;;20.10;60.70;;;;;;5032198;28;1095;-74
2021/06/01 05:06:22;;;;;;;;;;;20.10;60.70;;;;;;5033330;28;1898;-75
2021/06/01 05:08:48;;;;;;;;;;;20.10;60.80;;;;;;5031921;28;1227;-74
2021/06/01 05:11:15;;;;;;;;;;;20.10;60.90;;;;;;5032813;28;1178;-74
2021/06/01 05:13:40;;;;;;;;;;;20.10;60.90;;;;;;5032121;28;1134;-75
2021/06/01 05:16:06;;;;;;;;;;;20.10;60.90;;;;;;5019163;28;1209;-75
2021/06/01 05:18:31;;;;;;;;;;;20.10;60.80;;;;;;5032152;28;1280;-74
2021/06/01 05:20:56;;;;;;;;;;;20.10;60.80;;;;;;5033475;28;1147;-74
2021/06/01 05:23:22;;;;;;;;;;;20.20;60.90;;;;;;5022343;28;1774;-70
2021/06/01 05:25:47;;;;;;;;;;;20.20;60.70;;;;;;5029161;28;1965;-69
2021/06/01 05:28:13;;;;;;;;;;;20.20;60.80;;;;;;5028081;28;1845;-70
2021/06/01 05:30:43;;;;;;;;;;;20.20;60.90;;;;;;5037722;28;1154;-72
2021/06/01 05:33:14;;;;;;;;;;;20.20;61.00;;;;;;5038519;28;1912;-71
2021/06/01 05:35:43;;;;;;;;;;;20.20;61.00;;;;;;5040591;28;1012;-71
2021/06/01 05:38:08;;;;;;;;;;;20.20;61.10;;;;;;5046442;28;1292;-71
2021/06/01 05:40:34;;;;;;;;;;;20.10;61.00;;;;;;5030336;28;1115;-69
2021/06/01 05:42:59;;;;;;;;;;;20.20;61.10;;;;;;5030593;28;1052;-70
2021/06/01 05:45:25;;;;;;;;;;;20.20;61.20;;;;;;5031615;28;1910;-70
2021/06/01 05:47:50;;;;;;;;;;;20.20;61.30;;;;;;5030571;28;1297;-70
2021/06/01 05:50:15;;;;;;;;;;;20.20;61.30;;;;;;5031829;28;1154;-71
2021/06/01 05:52:41;;;;;;;;;;;20.20;61.30;;;;;;5031511;28;1102;-69
2021/06/01 05:55:07;;;;;;;;;;;20.20;61.30;;;;;;5030708;28;1122;-68
2021/06/01 05:57:32;;;;;;;;;;;20.20;61.20;;;;;;5010417;28;1297;-69
2021/06/01 05:59:58;;;;;;;;;;;20.20;61.30;;;;;;5032220;28;1032;-69
2021/06/01 06:02:23;;;;;;;;;;;20.20;61.30;;;;;;5032057;28;1166;-69
2021/06/01 06:04:48;;;;;;;;;;;20.20;61.20;;;;;;5029546;28;1898;-69
2021/06/01 06:07:14;;;;;;;;;;;20.20;61.20;;;;;;5029676;28;1308;-69
2021/06/01 06:09:39;;;;;;;;;;;20.20;61.30;;;;;;5031068;28;1174;-68
2021/06/01 06:12:05;;;;;;;;;;;20.20;61.40;;;;;;5031355;28;1137;-69
2021/06/01 06:14:30;;;;;;;;;;;20.20;61.40;;;;;;5030073;28;1078;-69
2021/06/01 06:16:56;;;;;;;;;;;20.20;61.40;;;;;;5031113;28;1861;-69
2021/06/01 06:19:22;;;;;;;;;;;20.20;61.40;;;;;;5029689;28;1011;-73
2021/06/01 06:21:47;;;;;;;;;;;20.20;61.50;;;;;;5031199;28;1091;-72
2021/06/01 06:24:13;;;;;;;;;;;20.20;61.50;;;;;;5030511;28;1906;-73
2021/06/01 06:26:38;;;;;;;;;;;20.20;61.60;;;;;;5031708;28;1950;-73
2021/06/01 06:29:03;;;;;;;;;;;20.20;61.60;;;;;;5029880;28;1308;-73
2021/06/01 06:31:29;;;;;;;;;;;20.20;61.60;;;;;;5044521;28;1642;-72
2021/06/01 06:33:54;;;;;;;;;;;20.20;61.60;;;;;;5032067;28;1434;-73
2021/06/01 06:36:20;;;;;;;;;;;20.20;61.60;;;;;;5043671;28;1526;-72
2021/06/01 06:38:47;;;;;;;;;;;20.20;61.60;;;;;;5043194;28;1427;-73
2021/06/01 06:41:14;;;;;;;;;;;20.20;61.70;;;;;;5038688;28;1548;-73
2021/06/01 06:43:47;;;;;;;;;;;20.20;61.70;;;;;;5030836;28;969;-73
2021/06/01 06:46:52;;;;;;;;;;;20.20;61.70;;;;;;5032449;28;1976;-73
2021/06/01 06:49:04;;;;;;;;;;;20.20;61.60;;;;;;5018308;28;1437;-71
2021/06/01 06:51:29;;;;;;;;;;;20.20;61.70;;;;;;5032231;28;887;-70
2021/06/01 06:53:58;;;;;;;;;;;20.20;61.70;;;;;;5030668;28;1484;-72
2021/06/01 06:56:24;;;;;;;;;;;20.20;61.80;;;;;;5031307;28;1452;-73
2021/06/01 06:58:50;;;;;;;;;;;20.20;61.70;;;;;;5030946;28;1408;-73
2021/06/01 07:01:15;;;;;;;;;;;20.30;61.90;;;;;;5032079;28;1365;-73
2021/06/01 07:03:41;;;;;;;;;;;20.30;61.80;;;;;;5031266;28;1571;-73
2021/06/01 07:06:06;;;;;;;;;;;20.30;61.70;;;;;;5032299;28;1899;-73
2021/06/01 07:08:32;;;;;;;;;;;20.30;61.70;;;;;;5014632;28;1475;-73
2021/06/01 07:10:57;;;;;;;;;;;20.30;61.70;;;;;;5032178;28;1372;-73
2021/06/01 07:13:31;;;;;;;;;;;20.20;61.70;;;;;;5030194;28;1398;-73
2021/06/01 07:15:56;;;;;;;;;;;20.30;61.80;;;;;;5030791;28;1345;-72
2021/06/01 07:18:22;;;;;;;;;;;20.30;61.80;;;;;;5033478;28;1469;-72
2021/06/01 07:20:47;;;;;;;;;;;20.30;61.80;;;;;;5036138;28;1123;-73
2021/06/01 07:23:13;;;;;;;;;;;20.30;61.90;;;;;;5035108;28;1665;-73
2021/06/01 07:25:38;;;;;;;;;;;20.30;61.90;;;;;;5035235;28;1931;-72
2021/06/01 07:28:04;;;;;;;;;;;20.30;61.90;;;;;;5036427;28;1221;-72
2021/06/01 07:30:29;;;;;;;;;;;20.30;61.90;;;;;;5035662;28;1351;-72
2021/06/01 07:32:55;;;;;;;;;;;20.30;62.00;;;;;;5036454;28;1357;-72
2021/06/01 07:35:21;;;;;;;;;;;20.30;62.00;;;;;;5035496;28;1525;-72
2021/06/01 07:37:47;;;;;;;;;;;20.30;62.00;;;;;;5035800;28;1340;-72
2021/06/01 07:40:12;;;;;;;;;;;20.30;62.10;;;;;;5036532;28;1672;-72
2021/06/01 07:42:38;;;;;;;;;;;20.30;62.20;;;;;;5036726;28;1754;-72
2021/06/01 07:45:03;;;;;;;;;;;20.30;62.20;;;;;;5036922;28;1951;-72
2021/06/01 07:47:29;;;;;;;;;;;20.30;62.20;;;;;;5018743;28;1735;-72
2021/06/01 07:49:54;;;;;;;;;;;20.30;62.20;;;;;;5036574;28;1423;-72
2021/06/01 07:52:20;;;;;;;;;;;20.30;62.20;;;;;;5035478;28;1390;-72
2021/06/01 07:54:45;;;;;;;;;;;20.30;62.20;;;;;;5034994;28;1383;-72
2021/06/01 07:57:10;;;;;;;;;;;20.30;62.20;;;;;;5041791;28;1420;-72
2021/06/01 07:59:36;;;;;;;;;;;20.30;62.20;;;;;;5035291;28;1412;-72
2021/06/01 08:02:01;;;;;;;;;;;20.30;62.20;;;;;;5035968;28;1644;-72
2021/06/01 08:04:27;;;;;;;;;;;20.30;62.30;;;;;;5033605;28;1961;-72
2021/06/01 08:06:52;;;;;;;;;;;20.30;62.30;;;;;;5035743;28;1576;-72
2021/06/01 08:09:18;;;;;;;;;;;20.20;62.30;;;;;;5027137;28;1850;-72
2021/06/01 08:11:43;;;;;;;;;;;20.30;62.40;;;;;;5024113;28;967;-72
2021/06/01 08:14:09;;;;;;;;;;;20.30;62.40;;;;;;5031796;28;1746;-72
2021/06/01 08:16:34;;;;;;;;;;;20.30;62.50;;;;;;5023327;28;1662;-72
2021/06/01 08:19:05;;;;;;;;;;;20.30;62.60;;;;;;5032201;28;1432;-72
2021/06/01 08:21:43;;;;;;;;;;;20.30;62.70;;;;;;5034190;28;1480;-72
2021/06/01 08:24:08;;;;;;;;;;;20.20;62.60;;;;;;5033840;28;1374;-72
2021/06/01 08:26:33;;;;;;;;;;;20.20;62.60;;;;;;5033632;28;1899;-72
2021/06/01 08:28:59;;;;;;;;;;;20.30;62.70;;;;;;5033125;28;1422;-72
2021/06/01 08:31:24;;;;;;;;;;;20.30;62.70;;;;;;5033636;28;1118;-72
2021/06/01 08:33:51;;;;;;;;;;;20.30;62.70;;;;;;5032693;28;1437;-71
2021/06/01 08:36:16;;;;;;;;;;;20.30;62.70;;;;;;5033769;28;1162;-72
2021/06/01 08:38:41;;;;;;;;;;;20.20;62.60;;;;;;5033046;28;1604;-72
2021/06/01 08:41:07;;;;;;;;;;;20.30;62.70;;;;;;5033511;28;1058;-72
2021/06/01 08:43:32;;;;;;;;;;;20.30;62.80;;;;;;5032773;28;1711;-72
2021/06/01 08:45:58;;;;;;;;;;;20.30;62.80;;;;;;5033536;28;1949;-71
2021/06/01 08:48:23;;;;;;;;;;;20.30;62.90;;;;;;5032826;28;1279;-73
2021/06/01 08:50:50;;;;;;;;;;;20.20;62.90;;;;;;5033212;28;1005;-71
2021/06/01 08:53:15;;;;;;;;;;;20.20;62.80;;;;;;5032344;28;1336;-71
2021/06/01 08:55:41;;;;;;;;;;;20.20;62.90;;;;;;5033305;28;1561;-72
2021/06/01 08:58:11;;;;;;;;;;;20.20;63.00;;;;;;5032812;28;1576;-72
2021/06/01 09:00:36;;;;;;;;;;;20.20;63.00;;;;;;5033031;28;1565;-72
2021/06/01 09:03:09;;;;;;;;;;;20.20;63.00;;;;;;5032197;28;1666;-72
2021/06/01 09:05:34;;;;;;;;;;;20.20;63.10;;;;;;5032072;28;1898;-72
2021/06/01 09:08:04;;;;;;;;;;;20.20;63.10;;;;;;5031329;28;1628;-72
2021/06/01 09:21:13;;;;;;;;;;;20.20;63.10;;;;;;5032820;28;1702;-72
2021/06/01 09:23:59;;;;;;;;;;;20.20;63.20;;;;;;5032594;28;1357;-72
2021/06/01 09:26:45;;;;;;;;;;;20.20;63.20;;;;;;5033452;28;1894;-72
2021/06/01 09:29:10;;;;;;;;;;;20.20;63.20;;;;;;5033327;28;1897;-72
2021/06/01 09:31:36;;;;;;;;;;;20.20;63.30;;;;;;5033221;28;1714;-72
2021/06/01 09:34:02;;;;;;;;;;;20.20;63.30;;;;;;5031061;28;1656;-72
2021/06/01 09:36:27;;;;;;;;;;;20.20;63.30;;;;;;5033286;28;777;-73
2021/06/01 09:38:53;;;;;;;;;;;20.20;63.30;;;;;;5032220;28;1374;-74
2021/06/01 09:41:19;;;;;;;;;;;20.20;63.40;;;;;;5032659;28;1076;-75
2021/06/01 09:43:54;;;;;;;;;;;20.20;63.40;;;;;;5031727;28;1163;-75
2021/06/01 09:46:24;;;;;;;;;;;20.20;63.40;;;;;;5032902;28;1911;-75
2021/06/01 09:48:49;;;;;;;;;;;20.20;63.50;;;;;;5031623;28;1384;-75
2021/06/01 09:51:24;;;;;;;;;;;20.20;63.60;;;;;;5031851;28;1596;-75
2021/06/01 09:53:53;;;;;;;;;;;20.20;63.60;;;;;;5031910;28;1030;-75
2021/06/01 09:56:19;;;;;;;;;;;20.20;63.50;;;;;;5032606;28;1172;-75
2021/06/01 09:58:44;;;;;;;;;;;20.20;63.70;;;;;;5015639;28;1569;-74
2021/06/01 10:01:09;;;;;;;;;;;20.20;63.70;;;;;;5033046;28;1361;-74
2021/06/01 10:03:38;;;;;;;;;;;20.20;63.70;;;;;;5031290;28;1421;-75
2021/06/01 10:06:04;;;;;;;;;;;20.20;63.70;;;;;;5031633;28;1902;-75
2021/06/01 10:08:29;;;;;;;;;;;20.20;63.50;;;;;;5011413;28;1686;-75
2021/06/01 10:11:02;;;;;;;;;;;20.20;63.50;;;;;;5029184;28;1029;-75
2021/06/01 10:13:28;;;;;;;;;;;20.20;63.60;;;;;;5030869;28;1497;-75
2021/06/01 10:15:55;;;;;;;;;;;20.20;63.50;;;;;;5020997;28;1341;-75
2021/06/01 10:18:20;;;;;;;;;;;20.20;63.50;;;;;;5015503;28;1475;-74
2021/06/01 10:20:46;;;;;;;;;;;20.20;63.50;;;;;;5032703;28;1273;-75
2021/06/01 10:23:12;;;;;;;;;;;20.20;63.60;;;;;;5031963;28;1354;-74
2021/06/01 10:25:38;;;;;;;;;;;20.20;63.60;;;;;;5031525;28;1906;-75
2021/06/01 10:28:05;;;;;;;;;;;20.20;63.70;;;;;;5031386;28;1511;-74
2021/06/01 10:30:31;;;;;;;;;;;20.20;63.80;;;;;;5032095;28;1641;-75
2021/06/01 10:33:01;;;;;;;;;;;20.20;63.70;;;;;;5030628;28;1711;-75
2021/06/01 10:35:31;;;;;;;;;;;20.20;63.60;;;;;;5032267;28;1195;-75
2021/06/01 10:49:29;;;;;;;;;;;20.30;63.90;;;;;;5039682;28;1323;-69
2021/06/01 10:52:00;;;;;;;;;;;20.20;63.80;;;;;;5033198;28;1118;-73
2021/06/01 10:54:38;;;;;;;;;;;20.30;63.90;;;;;;5042459;28;996;-72
2021/06/01 10:57:03;;;;;;;;;;;20.30;63.90;;;;;;5023633;28;1205;-73
2021/06/01 11:02:30;;;;;;;;;;;20.30;63.90;;;;;;5030567;28;1048;-75
2021/06/01 11:05:04;;;;;;;;;;;20.20;63.80;;;;;;5044263;28;1898;-74
2021/06/01 11:07:50;;;;;;;;;;;20.30;63.90;;;;;;5039949;28;1381;-74
2021/06/01 11:10:35;;;;;;;;;;;20.30;63.70;;;;;;5039410;28;1375;-71
2021/06/01 11:13:00;;;;;;;;;;;20.30;63.00;;;;;;5029201;28;1171;-72
2021/06/01 11:15:27;;;;;;;;;;;20.20;62.80;;;;;;5034413;28;796;-71
2021/06/01 11:17:53;;;;;;;;;;;20.20;62.90;;;;;;5035720;28;1234;-70
2021/06/01 11:20:36;;;;;;;;;;;20.20;62.80;;;;;;5036162;28;1084;-71
2021/06/01 11:23:22;;;;;;;;;;;20.20;62.90;;;;;;5020195;28;1893;-70
2021/06/01 11:33:51;;;;;;;;;;;20.10;62.80;;;;;;5033445;28;1262;-72
2021/06/01 11:36:18;;;;;;;;;;;20.10;62.80;;;;;;5033431;28;1051;-72
2021/06/01 11:38:53;;;;;;;;;;;20.10;62.80;;;;;;5034163;28;1325;-74
2021/06/01 11:44:16;;;;;;;;;;;20.00;62.70;;;;;;5033557;28;1001;-69
2021/06/01 11:47:08;;;;;;;;;;;20.00;62.60;;;;;;5033374;28;1991;-69
2021/06/01 11:52:25;;;;;;;;;;;20.00;62.60;;;;;;5032734;28;1075;-71
2021/06/01 11:54:54;;;;;;;;;;;20.00;62.50;;;;;;5032403;28;1099;-73
2021/06/01 12:02:39;;;;;;;;;;;20.00;62.50;;;;;;5032694;28;1104;-71
2021/06/01 12:05:19;;;;;;;;;;;20.00;62.50;;;;;;5031604;28;1946;-72
2021/06/01 12:18:39;;;;;;;;;;;20.00;62.30;;;;;;5032839;28;1328;-72
2021/06/01 12:21:08;;;;;;;;;;;20.00;62.40;;;;;;5033969;28;1159;-71
2021/06/01 12:23:37;;;;;;;;;;;20.00;62.30;;;;;;5032245;28;1143;-72
2021/06/01 12:26:07;;;;;;;;;;;20.00;62.30;;;;;;5033148;28;1952;-72
2021/06/01 12:31:20;;;;;;;;;;;20.00;62.30;;;;;;5032662;28;1135;-72
2021/06/01 12:33:59;;;;;;;;;;;20.00;62.30;;;;;;5031009;28;1233;-72
2021/06/01 12:37:08;;;;;;;;;;;20.00;62.30;;;;;;5033130;28;1076;-72
2021/06/01 12:42:33;;;;;;;;;;;20.00;62.30;;;;;;5032228;28;1171;-71
2021/06/01 12:44:59;;;;;;;;;;;20.00;62.30;;;;;;5040721;28;1961;-69
2021/06/01 13:05:10;;;;;;;;;;;20.00;62.30;;;;;;5043074;28;1288;-74
2021/06/01 13:07:36;;;;;;;;;;;20.00;62.30;;;;;;5041965;28;1901;-75
2021/06/01 13:12:06;;;;;;;;;;;19.90;62.30;;;;;;5036763;28;1038;-74
2021/06/01 13:20:55;;;;;;;;;;;19.90;62.20;;;;;;5033241;28;1071;-73
2021/06/01 13:23:56;;;;;;;;;;;20.00;62.30;;;;;;5015994;28;1268;-73
2021/06/01 13:48:40;;;;;;;;;;;19.90;62.30;;;;;;5033252;28;1364;-72
2021/06/01 13:56:14;;;;;;;;;;;19.90;62.30;;;;;;5032191;28;1056;-74
2021/06/01 13:58:51;;;;;;;;;;;19.90;62.30;;;;;;5031592;28;1291;-72
2021/06/01 14:01:49;;;;;;;;;;;19.90;62.30;;;;;;5037014;28;1028;-74
2021/06/01 14:09:54;;;;;;;;;;;19.90;62.30;;;;;;5030749;28;953;-74
2021/06/01 14:20:40;;;;;;;;;;;19.90;62.40;;;;;;5030609;28;1135;-74
2021/06/01 14:39:41;;;;;;;;;;;19.90;62.40;;;;;;5031896;28;1044;-73
2021/06/01 15:10:19;;;;;;;;;;;20.00;59.80;;;;;;5030495;28;1873;-69
2021/06/01 15:28:45;;;;;;;;;;;20.00;59.30;;;;;;5030388;28;1290;-70
2021/06/01 16:14:31;;;;;;;;;;;20.00;58.30;;;;;;5029351;28;1066;-71
2021/06/01 16:30:19;;;;;;;;;;;20.00;58.70;;;;;;5033473;28;1114;-68
2021/06/01 16:43:56;;;;;;;;;;;20.00;57.40;;;;;;5031809;28;1155;-67
2021/06/01 17:05:42;;;;;;;;;;;19.90;58.10;;;;;;5033674;28;1959;-71
2021/06/01 17:13:21;;;;;;;;;;;19.90;58.10;;;;;;5015852;28;1278;-69
2021/06/01 17:15:46;;;;;;;;;;;19.90;58.20;;;;;;5031281;28;1218;-72
2021/06/01 17:18:21;;;;;;;;;;;19.90;58.30;;;;;;5031055;28;1494;-72
2021/06/01 17:23:48;;;;;;;;;;;19.90;59.00;;;;;;5021835;28;1606;-71
2021/06/01 17:34:42;;;;;;;;;;;19.90;58.70;;;;;;5031793;28;1332;-70
2021/06/01 17:37:08;;;;;;;;;;;19.90;58.70;;;;;;5029545;28;1312;-70
2021/06/01 17:39:34;;;;;;;;;;;19.90;58.70;;;;;;5029157;28;1362;-70
2021/06/01 17:42:00;;;;;;;;;;;19.90;58.80;;;;;;5033006;28;1095;-70
2021/06/01 17:44:26;;;;;;;;;;;19.90;58.90;;;;;;5031039;28;1075;-71
2021/06/01 17:46:53;;;;;;;;;;;19.90;58.90;;;;;;5031015;28;1956;-71
2021/06/01 17:49:23;;;;;;;;;;;19.90;58.90;;;;;;5014783;28;1422;-70
2021/06/01 17:51:52;;;;;;;;;;;19.90;58.90;;;;;;5031983;28;1123;-72
2021/06/01 17:54:28;;;;;;;;;;;19.90;58.90;;;;;;5030778;28;1437;-71
2021/06/01 17:56:54;;;;;;;;;;;19.90;59.00;;;;;;5024182;28;1396;-70
2021/06/01 17:59:19;;;;;;;;;;;19.90;59.10;;;;;;5032222;28;1287;-71
2021/06/01 18:01:45;;;;;;;;;;;19.90;59.00;;;;;;5032397;28;1044;-70
2021/06/01 18:04:13;;;;;;;;;;;19.90;59.10;;;;;;5030961;28;1351;-71
2021/06/01 18:06:41;;;;;;;;;;;19.90;59.10;;;;;;5030765;28;1923;-71
2021/06/01 18:11:51;;;;;;;;;;;19.90;59.10;;;;;;5032550;28;1272;-70
2021/06/01 19:24:31;;;;;;;;;;;20.00;59.40;;;;;;5033667;28;1001;-69
2021/06/01 19:44:00;;;;;;;;;;;20.00;59.40;;;;;;5030504;28;1027;-70
2021/06/01 19:51:44;;;;;;;;;;;20.00;59.50;;;;;;5033807;28;1064;-69
2021/06/01 19:54:09;;;;;;;;;;;20.00;59.50;;;;;;5034768;28;1124;-69
2021/06/01 19:56:36;;;;;;;;;;;20.00;59.50;;;;;;5033902;28;1021;-69
2021/06/01 19:59:04;;;;;;;;;;;20.00;59.50;;;;;;5034836;28;1310;-69
2021/06/01 20:01:29;;;;;;;;;;;20.00;59.50;;;;;;5035018;28;1076;-69
2021/06/01 20:03:55;;;;;;;;;;;20.00;59.50;;;;;;5034618;28;1517;-69
2021/06/01 20:06:20;;;;;;;;;;;20.00;59.50;;;;;;5033173;28;1898;-70
2021/06/01 20:08:46;;;;;;;;;;;20.00;59.50;;;;;;5033857;28;1647;-69
2021/06/01 20:11:11;;;;;;;;;;;20.00;59.50;;;;;;5034686;28;1031;-70
2021/06/01 20:13:37;;;;;;;;;;;20.00;59.50;;;;;;5034484;28;1077;-70
2021/06/01 20:16:02;;;;;;;;;;;20.00;59.50;;;;;;5033587;28;1243;-70
2021/06/01 20:18:31;;;;;;;;;;;20.00;59.50;;;;;;5034777;28;1210;-70
2021/06/01 20:20:57;;;;;;;;;;;20.00;59.50;;;;;;5033114;28;1129;-70
2021/06/01 20:23:23;;;;;;;;;;;20.00;59.50;;;;;;5034147;28;1489;-69
2021/06/01 20:25:49;;;;;;;;;;;20.00;59.50;;;;;;5033006;28;1906;-70
2021/06/01 20:28:37;;;;;;;;;;;20.00;59.60;;;;;;5033256;28;1342;-69
2021/06/01 20:31:08;;;;;;;;;;;20.00;59.50;;;;;;5027720;28;1135;-70
2021/06/01 20:33:34;;;;;;;;;;;20.00;59.50;;;;;;5029586;28;1083;-69
2021/06/01 20:35:59;;;;;;;;;;;20.00;59.50;;;;;;5033894;28;913;-69
2021/06/01 20:38:25;;;;;;;;;;;20.10;59.60;;;;;;5034697;28;1290;-69
2021/06/01 20:40:50;;;;;;;;;;;20.10;59.60;;;;;;5034576;28;1320;-69
2021/06/01 20:43:16;;;;;;;;;;;20.00;59.60;;;;;;5028852;28;1048;-69
2021/06/01 20:45:42;;;;;;;;;;;20.00;59.60;;;;;;5013312;28;1914;-73
2021/06/01 20:48:12;;;;;;;;;;;20.00;59.60;;;;;;5032184;28;1383;-70
2021/06/01 20:50:38;;;;;;;;;;;20.00;59.60;;;;;;5032461;28;1265;-70
2021/06/01 20:53:03;;;;;;;;;;;20.00;59.60;;;;;;5032267;28;1570;-70
2021/06/01 20:55:29;;;;;;;;;;;20.10;59.70;;;;;;5034070;28;1389;-70
2021/06/01 20:57:59;;;;;;;;;;;20.00;59.60;;;;;;5032771;28;1316;-71
2021/06/01 21:00:31;;;;;;;;;;;20.00;59.60;;;;;;5032415;28;1073;-70
2021/06/01 21:02:57;;;;;;;;;;;20.00;59.60;;;;;;5031945;28;1314;-71
2021/06/01 21:05:28;;;;;;;;;;;20.00;59.60;;;;;;5031861;28;1910;-70
2021/06/01 21:07:53;;;;;;;;;;;20.00;59.60;;;;;;5033527;28;1438;-71